Terminal Aerodrome Forecast
Issued by NWS Wilmington, OH

Current Version | Previous Version | Graphics & Text | Print | Product List | Glossary On
Versions: 1 2 3 4 5 6 7 8 9 10 11 12 13 14 15 16 17 18 19 20 21 22 23 24 25 26 27 28 29 30 31 32
000
FTUS41 KILN 031700
TAFCVG
TAF
KCVG 031730Z 0318/0424 06006KT P6SM VCSH SCT025 BKN040
      TEMPO 0318/0321 OVC015
     FM040200 03005KT P6SM BKN060
     FM040800 01004KT 4SM BR SCT015 BKN060
     FM041500 34007KT P6SM SCT040=

USA.gov is the U.S. government's official web portal to all federal, state and local government web resources and services.